Fjordprinsessen — LJVE — position and weather

sailwx.info

Track history (hours):
 
Tides and Currents Weather Stations Pressure Air Temp Water Temp Dewpoint Dewpoint Depression Visibility Wind Speed Wind Dir Waves Ship Positions

Fjordprinsessen

Last reported at 2017-Sep-24 14:00 UTC. Time now 2017-Sep-24 14:12 UTC.
Position N 67°17' E 014°22'.

Length 30 m.

Type: High speed craft. MMSI: 259604000.

Date/timePositionNaut miles runAvg speedWind from/ knotsBaromVisibWave heightAir tempDewpointWater temp
2017-Sep-24 14:00N 67°17' E 014°22'2 4.0
2017-Sep-24 13:30N 67°19' E 014°21'2 3.6
2017-Sep-24 12:58N 67°17' E 014°22'0 0.0
2017-Sep-24 12:28N 67°17' E 014°22'0 0.0
2017-Sep-24 11:58N 67°17' E 014°22'0 0.0
2017-Sep-24 11:28N 67°17' E 014°22'0 0.0
2017-Sep-24 10:58N 67°17' E 014°22'0 0.0
2017-Sep-24 10:28N 67°17' E 014°22'0 0.0
2017-Sep-24 09:58N 67°17' E 014°22'0 0.0
2017-Sep-24 09:28N 67°17' E 014°22'0 0.0
2017-Sep-24 08:58N 67°17' E 014°22'0 0.0
2017-Sep-24 08:28N 67°17' E 014°22'0 0.0
2017-Sep-24 07:58N 67°17' E 014°22'0 0.0
2017-Sep-24 07:28N 67°17' E 014°22'0 0.0
2017-Sep-24 06:58N 67°17' E 014°22'0 0.0
2017-Sep-24 06:28N 67°17' E 014°22'0 0.0
2017-Sep-24 05:58N 67°17' E 014°22'0 0.0
2017-Sep-24 05:28N 67°17' E 014°22'0 0.0
2017-Sep-24 04:58N 67°17' E 014°22'0 0.0
2017-Sep-24 04:28N 67°17' E 014°22'0 0.0
2017-Sep-24 03:58N 67°17' E 014°22'0 0.0
2017-Sep-24 03:28N 67°17' E 014°22'0 0.0
2017-Sep-24 02:58N 67°17' E 014°22'0 0.0
2017-Sep-24 02:28N 67°17' E 014°22'0 0.0
2017-Sep-24 01:58N 67°17' E 014°22'0 0.0
2017-Sep-24 01:28N 67°17' E 014°22'0 0.0
2017-Sep-24 00:58N 67°17' E 014°22'0 0.0
2017-Sep-24 00:28N 67°17' E 014°22'0 0.0
2017-Sep-23 23:58N 67°17' E 014°22'0 0.0
2017-Sep-23 23:28N 67°17' E 014°22'0 0.0
2017-Sep-23 22:58N 67°17' E 014°22'0 0.0
2017-Sep-23 22:28N 67°17' E 014°22'0 0.0
2017-Sep-23 21:58N 67°17' E 014°22'0 0.0
2017-Sep-23 21:28N 67°17' E 014°22'0 0.0
2017-Sep-23 20:58N 67°17' E 014°22'0 0.0
2017-Sep-23 20:28N 67°17' E 014°22'0 0.0
2017-Sep-23 19:58N 67°17' E 014°22'0 0.0
2017-Sep-22 02:00N 67°17' E 014°22'0 0.0
2017-Sep-22 01:30N 67°17' E 014°22'0 0.0
2017-Sep-22 01:00N 67°17' E 014°22'0 0.0
2017-Sep-22 00:30N 67°17' E 014°22'0 0.0
2017-Sep-22 00:00N 67°17' E 014°22'0 0.0
2017-Sep-21 23:30N 67°17' E 014°22'0 0.0
2017-Sep-21 23:00N 67°17' E 014°22'0 0.0
2017-Sep-21 22:30N 67°17' E 014°22'0 0.0
2017-Sep-21 22:00N 67°17' E 014°22'0 0.0
2017-Sep-21 21:30N 67°17' E 014°22'0 0.0
2017-Sep-21 21:00N 67°17' E 014°22'0 0.0
2017-Sep-21 20:30N 67°17' E 014°22'0 0.0
2017-Sep-21 20:00N 67°17' E 014°22'0 0.0
2017-Sep-21 19:30N 67°17' E 014°22'0 0.0
2017-Sep-21 19:00N 67°17' E 014°22'0 0.0
2017-Sep-21 18:30N 67°17' E 014°22'0 0.0
2017-Sep-21 18:00N 67°17' E 014°22'0 0.0
2017-Sep-21 17:30N 67°17' E 014°22'0 0.0
2017-Sep-21 17:00N 67°17' E 014°22'0 0.0
2017-Sep-21 16:30N 67°17' E 014°22'0 0.0
2017-Sep-21 16:00N 67°17' E 014°22'2 5.1
2017-Sep-21 15:30N 67°17' E 014°16'918.3
2017-Sep-21 15:00N 67°22' E 013°56'3 5.0
2017-Sep-21 14:30N 67°24' E 013°54'0 0.0
2017-Sep-21 14:00N 67°24' E 013°54'0 0.0
2017-Sep-21 13:30N 67°24' E 013°54'0 0.0
2017-Sep-21 13:00N 67°24' E 013°54'0 0.0
2017-Sep-21 12:30N 67°24' E 013°54'0 0.1
2017-Sep-21 12:00N 67°24' E 013°54'815.6
2017-Sep-21 11:30N 67°23' E 014°15'714.3
2017-Sep-21 11:00N 67°17' E 014°22'1 1.2
2017-Sep-21 10:30N 67°17' E 014°23'3 6.3
2017-Sep-21 10:01N 67°17' E 014°16'1020.6
2017-Sep-21 09:30N 67°13' E 013°51'5 9.7
2017-Sep-21 09:01N 67°08' E 013°53'510.0
2017-Sep-21 08:31N 67°10' E 014°04'1019.4
2017-Sep-21 08:00N 67°17' E 014°22'0 0.0
2017-Sep-21 07:29N 67°17' E 014°22'0 0.0
2017-Sep-21 06:59N 67°17' E 014°22'0 0.0
2017-Sep-21 06:29N 67°17' E 014°22'0 0.0
2017-Sep-21 05:59N 67°17' E 014°22'0 0.0
2017-Sep-21 05:29N 67°17' E 014°22'0 0.3
2017-Sep-21 05:01N 67°17' E 014°22'1224.6
2017-Sep-21 04:30N 67°07' E 014°03'4 8.8
2017-Sep-21 04:01N 67°11' E 014°07'815.2
2017-Sep-21 03:28N 67°17' E 014°22'0 0.0
2017-Sep-21 02:58N 67°17' E 014°22'0 0.0
2017-Sep-21 02:28N 67°17' E 014°22'0 0.0
2017-Sep-21 01:58N 67°17' E 014°22'0 0.0
2017-Sep-21 01:28N 67°17' E 014°22'0 0.0
2017-Sep-21 00:58N 67°17' E 014°22'0 0.0
2017-Sep-21 00:28N 67°17' E 014°22'0 0.0
2017-Sep-20 23:58N 67°17' E 014°22'0 0.0
2017-Sep-20 23:28N 67°17' E 014°22'0 0.0
2017-Sep-20 22:58N 67°17' E 014°22'0 0.0
2017-Sep-20 22:28N 67°17' E 014°22'0 0.0
2017-Sep-20 21:58N 67°17' E 014°22'0 0.0
2017-Sep-20 21:28N 67°17' E 014°22'0 0.0
2017-Sep-20 20:58N 67°17' E 014°22'0 0.0
2017-Sep-20 20:28N 67°17' E 014°22'0 0.0
2017-Sep-20 19:58N 67°17' E 014°22'1021.8
2017-Sep-20 19:31N 67°13' E 013°59'4 9.0
2017-Sep-20 19:00N 67°10' E 013°51'510.4
2017-Sep-20 18:31N 67°07' E 014°02'1224.6
2017-Sep-20 18:01N 67°17' E 014°22'0 0.1
2017-Sep-20 17:30N 67°17' E 014°22'0 0.0
2017-Sep-20 17:00N 67°17' E 014°22'0 0.1
2017-Sep-20 16:31N 67°17' E 014°22'4 7.9
2017-Sep-20 16:01N 67°17' E 014°12'1122.0
2017-Sep-20 15:30N 67°11' E 013°48'2 4.8
2017-Sep-20 15:00N 67°09' E 013°52'1414.4
2017-Sep-20 14:00N 67°17' E 014°22'0 0.0
2017-Sep-20 13:30N 67°17' E 014°22'1 1.4
2017-Sep-20 13:00N 67°17' E 014°24'1 1.4
2017-Sep-20 12:30N 67°17' E 014°22'0 0.0
2017-Sep-20 12:00N 67°17' E 014°22'0 0.0
2017-Sep-20 11:30N 67°17' E 014°22'0 0.0
2017-Sep-20 11:00N 67°17' E 014°22'0 0.0
2017-Sep-20 10:30N 67°17' E 014°22'0 0.0
2017-Sep-20 10:00N 67°17' E 014°22'0 0.0
2017-Sep-20 09:30N 67°17' E 014°22'0 0.0
2017-Sep-20 09:00N 67°17' E 014°22'0 0.0
2017-Sep-20 08:30N 67°17' E 014°22'0 0.0
2017-Sep-20 08:00N 67°17' E 014°22'2 3.1
2017-Sep-20 07:30N 67°19' E 014°22'1019.7
2017-Sep-20 07:00N 67°25' E 014°02'816.2
2017-Sep-20 06:30N 67°20' E 013°46'611.3
2017-Sep-20 06:00N 67°24' E 013°54'714.4
2017-Sep-20 05:29N 67°23' E 014°13'714.0
2017-Sep-20 05:01N 67°17' E 014°21'1223.3
2017-Sep-20 04:30N 67°07' E 014°03'4 8.0
2017-Sep-20 04:01N 67°11' E 014°06'917.3
2017-Sep-20 03:30N 67°17' E 014°22'0 0.0
2017-Sep-20 03:00N 67°17' E 014°22'0 0.0
2017-Sep-20 02:30N 67°17' E 014°22'0 0.0
2017-Sep-20 02:00N 67°17' E 014°22'0 0.0
2017-Sep-20 01:30N 67°17' E 014°22'0 0.0
2017-Sep-20 01:00N 67°17' E 014°22'0 0.0
2017-Sep-20 00:30N 67°17' E 014°22'0 0.0
2017-Sep-20 00:00N 67°17' E 014°22'0 0.0
2017-Sep-19 23:30N 67°17' E 014°22'0 0.0
2017-Sep-19 23:00N 67°17' E 014°22'0 0.0
2017-Sep-19 22:30N 67°17' E 014°22'0 0.0
2017-Sep-19 22:00N 67°17' E 014°22'0 0.0
2017-Sep-19 21:30N 67°17' E 014°22'0 0.0
2017-Sep-19 21:00N 67°17' E 014°22'0 0.0
2017-Sep-19 20:30N 67°17' E 014°22'0 0.0
2017-Sep-19 19:59N 67°17' E 014°22'0 0.0
2017-Sep-19 19:29N 67°17' E 014°22'0 0.0
2017-Sep-19 18:59N 67°17' E 014°22'0 0.0
2017-Sep-19 18:29N 67°17' E 014°22'0 0.0
2017-Sep-19 17:59N 67°17' E 014°22'0 0.0
2017-Sep-19 17:29N 67°17' E 014°22'0 0.0
2017-Sep-19 16:59N 67°17' E 014°22'0 0.1
2017-Sep-19 16:30N 67°17' E 014°22'613.0
2017-Sep-19 16:01N 67°22' E 014°12'1223.6
2017-Sep-19 15:30N 67°18' E 013°43'714.3
2017-Sep-19 15:00N 67°24' E 013°54'714.2
2017-Sep-19 14:31N 67°24' E 014°12'816.0
2017-Sep-19 14:00N 67°17' E 014°22'0 0.9
2017-Sep-19 13:30N 67°17' E 014°23'0 0.3
2017-Sep-19 13:00N 67°17' E 014°23'0 0.8
2017-Sep-19 12:30N 67°17' E 014°22'0 0.0
2017-Sep-19 11:58N 67°17' E 014°22'0 0.0
2017-Sep-19 11:28N 67°17' E 014°22'0 0.0
2017-Sep-19 10:58N 67°17' E 014°22'0 0.0
2017-Sep-19 10:28N 67°17' E 014°22'0 0.0
2017-Sep-19 09:58N 67°17' E 014°22'0 0.0
2017-Sep-19 09:28N 67°17' E 014°22'0 0.0
2017-Sep-19 08:58N 67°17' E 014°22'0 0.0
2017-Sep-19 08:28N 67°17' E 014°22'0 0.0
2017-Sep-19 07:58N 67°17' E 014°22'3 7.6
2017-Sep-19 07:31N 67°20' E 014°18'918.1
2017-Sep-19 07:00N 67°26' E 013°59'1019.1
2017-Sep-19 06:30N 67°18' E 013°43'815.1
2017-Sep-19 06:00N 67°25' E 013°54'715.0
2017-Sep-19 05:31N 67°23' E 014°13'713.0
2017-Sep-19 05:01N 67°17' E 014°21'1224.0
2017-Sep-19 04:30N 67°07' E 014°03'510.5
2017-Sep-19 04:01N 67°12' E 014°08'714.6
2017-Sep-19 03:30N 67°17' E 014°22'0 0.0
2017-Sep-19 03:00N 67°17' E 014°22'0 0.0
2017-Sep-19 02:30N 67°17' E 014°22'0 0.0
2017-Sep-19 02:00N 67°17' E 014°22'0 0.0
2017-Sep-19 01:30N 67°17' E 014°22'0 0.0
2017-Sep-19 01:00N 67°17' E 014°22'0 0.0
2017-Sep-19 00:30N 67°17' E 014°22'0 0.0
2017-Sep-19 00:00N 67°17' E 014°22'0 0.0
2017-Sep-18 23:30N 67°17' E 014°22'0 0.0
2017-Sep-18 23:00N 67°17' E 014°22'0 0.0
2017-Sep-18 22:30N 67°17' E 014°22'0 0.0
2017-Sep-18 22:00N 67°17' E 014°22'0 0.0
2017-Sep-18 21:30N 67°17' E 014°22'0 0.0
2017-Sep-18 21:00N 67°17' E 014°22'0 0.0
2017-Sep-18 20:30N 67°17' E 014°22'0 0.0
2017-Sep-18 20:00N 67°17' E 014°22'0 0.0
2017-Sep-18 19:30N 67°17' E 014°22'0 0.0
2017-Sep-18 19:00N 67°17' E 014°22'0 0.0
2017-Sep-18 18:30N 67°17' E 014°22'0 0.0
2017-Sep-18 18:00N 67°17' E 014°22'0 0.0
2017-Sep-18 17:30N 67°17' E 014°22'0 0.0
2017-Sep-18 17:00N 67°17' E 014°22'0 0.0
2017-Sep-18 16:30N 67°17' E 014°22'3 6.6
2017-Sep-18 16:01N 67°17' E 014°14'1020.9
2017-Sep-18 15:30N 67°12' E 013°50'4 7.3
2017-Sep-18 15:00N 67°08' E 013°52'4 8.3
2017-Sep-18 14:30N 67°09' E 014°02'1223.2
2017-Sep-18 14:01N 67°17' E 014°22'0 0.1
2017-Sep-18 13:30N 67°17' E 014°22'1 1.2
2017-Sep-18 13:00N 67°17' E 014°23'1 1.2
2017-Sep-18 12:30N 67°17' E 014°22'0 0.0
2017-Sep-18 12:00N 67°17' E 014°22'0 0.0
2017-Sep-18 11:30N 67°17' E 014°22'0 0.0
2017-Sep-18 11:00N 67°17' E 014°22'0 0.0
2017-Sep-18 10:30N 67°17' E 014°22'0 0.0
2017-Sep-18 10:00N 67°17' E 014°22'0 0.0
2017-Sep-18 09:30N 67°17' E 014°22'0 0.0
2017-Sep-18 09:00N 67°17' E 014°22'0 0.0
2017-Sep-18 08:30N 67°17' E 014°22'0 0.0
2017-Sep-18 08:01N 67°17' E 014°22'1 1.0
2017-Sep-18 07:31N 67°18' E 014°22'917.3
2017-Sep-18 07:00N 67°24' E 014°09'816.7
2017-Sep-18 06:31N 67°21' E 013°49'4 7.2
2017-Sep-18 06:01N 67°24' E 013°54'816.3
2017-Sep-18 05:31N 67°23' E 014°15'713.7
2017-Sep-18 05:01N 67°17' E 014°22'1019.6
2017-Sep-18 04:30N 67°25' E 014°06'5 8.2
2017-Sep-18 03:57N 67°24' E 013°54'0 0.0
2017-Sep-18 03:30N 67°24' E 013°54'0 0.0
2017-Sep-18 03:00N 67°24' E 013°54'0 0.0
2017-Sep-18 02:30N 67°24' E 013°54'0 0.0
2017-Sep-18 02:00N 67°24' E 013°54'0 0.0
2017-Sep-18 01:30N 67°24' E 013°54'0 0.0
2017-Sep-18 01:00N 67°24' E 013°54'0 0.0
2017-Sep-18 00:30N 67°24' E 013°54'0 0.0
2017-Sep-18 00:00N 67°24' E 013°54'0 0.0
2017-Sep-17 23:30N 67°24' E 013°54'0 0.0
2017-Sep-17 23:00N 67°24' E 013°54'0 0.0
2017-Sep-17 22:30N 67°24' E 013°54'0 0.0
2017-Sep-17 22:00N 67°24' E 013°54'0 0.0
2017-Sep-17 21:30N 67°24' E 013°54'0 0.0
2017-Sep-17 21:00N 67°24' E 013°54'0 0.0
2017-Sep-17 20:30N 67°24' E 013°54'0 0.0
2017-Sep-17 20:00N 67°24' E 013°54'510.5
2017-Sep-17 19:31N 67°25' E 014°08'919.0
2017-Sep-17 19:00N 67°17' E 014°22'0 0.5
2017-Sep-17 18:30N 67°17' E 014°22'1325.7
2017-Sep-17 18:01N 67°08' E 013°58'1121.5
2017-Sep-17 17:30N 67°00' E 013°40'612.8
2017-Sep-17 17:00N 66°55' E 013°30'612.1
2017-Sep-17 16:30N 66°49' E 013°31'816.3
2017-Sep-17 16:00N 66°45' E 013°13'611.4
2017-Sep-17 15:30N 66°39' E 013°07'612.6
2017-Sep-17 15:00N 66°34' E 012°58'918.9
2017-Sep-17 14:30N 66°25' E 012°50'612.8
2017-Sep-17 14:00N 66°19' E 012°54'816.9
2017-Sep-17 13:30N 66°11' E 012°59'1222.5
2017-Sep-17 13:00N 66°05' E 012°35'4 7.6
2017-Sep-17 12:30N 66°01' E 012°38'0 0.0
2017-Sep-17 12:00N 66°01' E 012°38'0 0.0
2017-Sep-17 11:30N 66°01' E 012°38'0 0.0
2017-Sep-17 10:57N 66°01' E 012°38'0 0.0
2017-Sep-17 10:30N 66°01' E 012°38'0 0.0
2017-Sep-17 10:00N 66°01' E 012°38'0 0.0
2017-Sep-17 09:30N 66°01' E 012°38'0 0.0
2017-Sep-17 09:00N 66°01' E 012°38'0 0.0
2017-Sep-17 08:30N 66°01' E 012°38'0 0.0
2017-Sep-17 08:00N 66°01' E 012°38'0 0.0
2017-Sep-17 07:30N 66°01' E 012°38'0 0.0
2017-Sep-17 07:00N 66°01' E 012°38'0 0.0
2017-Sep-17 06:30N 66°01' E 012°38'0 0.0
2017-Sep-17 06:00N 66°01' E 012°38'0 0.0
2017-Sep-17 05:27N 66°01' E 012°38'0 0.0
2017-Sep-17 05:00N 66°01' E 012°38'0 0.0
2017-Sep-17 04:30N 66°01' E 012°38'0 0.0
2017-Sep-17 03:57N 66°01' E 012°38'0 0.0
2017-Sep-17 03:30N 66°01' E 012°38'0 0.0
2017-Sep-17 03:00N 66°01' E 012°38'0 0.0
2017-Sep-17 02:30N 66°01' E 012°38'0 0.0
2017-Sep-17 01:57N 66°01' E 012°38'0 0.0
2017-Sep-17 01:24N 66°01' E 012°38'0 0.0
2017-Sep-17 01:00N 66°01' E 012°38'0 0.0
2017-Sep-17 00:30N 66°01' E 012°38'0 0.0
2017-Sep-17 00:00N 66°01' E 012°38'0 0.0
2017-Sep-16 23:30N 66°01' E 012°38'0 0.0
2017-Sep-16 23:00N 66°01' E 012°38'0 0.0
2017-Sep-16 22:30N 66°01' E 012°38'0 0.0
2017-Sep-16 22:00N 66°01' E 012°38'0 0.0
2017-Sep-16 21:30N 66°01' E 012°38'0 0.0
2017-Sep-16 21:00N 66°01' E 012°38'0 0.0
2017-Sep-16 20:30N 66°01' E 012°38'0 0.0
2017-Sep-16 19:59N 66°01' E 012°38'4 7.7
2017-Sep-16 19:30N 66°05' E 012°36'1122.8
2017-Sep-16 19:00N 66°11' E 012°60'918.3
2017-Sep-16 18:30N 66°20' E 013°00'714.0
2017-Sep-16 18:01N 66°24' E 012°46'917.2
2017-Sep-16 17:30N 66°31' E 012°60'917.0
2017-Sep-16 17:00N 66°39' E 013°04'611.9
2017-Sep-16 16:30N 66°43' E 013°17'612.2
2017-Sep-16 16:00N 66°48' E 013°23'816.4
2017-Sep-16 15:30N 66°53' E 013°40'918.3
2017-Sep-16 15:00N 67°02' E 013°45'918.2
2017-Sep-16 14:31N 67°07' E 014°03'1222.5
2017-Sep-16 13:58N 67°17' E 014°22'0 0.0
2017-Sep-16 13:28N 67°17' E 014°22'0 0.0
2017-Sep-16 12:58N 67°17' E 014°22'0 0.0
2017-Sep-16 12:28N 67°17' E 014°22'0 0.0
2017-Sep-16 11:58N 67°17' E 014°22'0 0.0
2017-Sep-16 11:28N 67°17' E 014°22'0 0.0
2017-Sep-16 10:58N 67°17' E 014°22'0 0.0
2017-Sep-16 10:28N 67°17' E 014°22'0 0.0
2017-Sep-16 09:58N 67°17' E 014°22'0 0.0
2017-Sep-16 09:28N 67°17' E 014°22'0 0.0
2017-Sep-16 08:58N 67°17' E 014°22'0 0.0
2017-Sep-16 08:28N 67°17' E 014°22'0 0.0
2017-Sep-16 08:01N 67°17' E 014°22'0 0.0
2017-Sep-16 07:31N 67°17' E 014°22'2 4.4
2017-Sep-16 07:01N 67°16' E 014°18'1121.9
2017-Sep-16 06:31N 67°07' E 014°00'611.2
2017-Sep-16 06:01N 67°11' E 013°49'1427.4
2017-Sep-16 05:30N 67°17' E 014°21'1 1.2
2017-Sep-16 05:00N 67°17' E 014°22'0 0.0
2017-Sep-16 04:30N 67°17' E 014°22'0 0.0
2017-Sep-16 04:00N 67°17' E 014°22'0 0.0
2017-Sep-16 03:30N 67°17' E 014°22'0 0.0
2017-Sep-16 03:00N 67°17' E 014°22'0 0.0
2017-Sep-16 02:30N 67°17' E 014°22'0 0.0
2017-Sep-16 02:00N 67°17' E 014°22'0 0.0
2017-Sep-16 01:30N 67°17' E 014°22'0 0.0
2017-Sep-16 01:00N 67°17' E 014°22'0 0.0
2017-Sep-16 00:30N 67°17' E 014°22'0 0.0
2017-Sep-16 00:00N 67°17' E 014°22'0 0.0
2017-Sep-15 23:30N 67°17' E 014°22'0 0.0
2017-Sep-15 23:00N 67°17' E 014°22'0 0.0
2017-Sep-15 22:30N 67°17' E 014°22'0 0.0
2017-Sep-15 22:00N 67°17' E 014°22'0 0.0
2017-Sep-15 21:30N 67°17' E 014°22'0 0.0
2017-Sep-15 21:00N 67°17' E 014°22'0 0.0
2017-Sep-15 20:30N 67°17' E 014°22'0 0.0
2017-Sep-15 20:00N 67°17' E 014°22'0 0.0
2017-Sep-15 19:30N 67°17' E 014°22'0 0.0
2017-Sep-15 19:00N 67°17' E 014°22'0 0.0
2017-Sep-15 18:30N 67°17' E 014°22'0 0.0
2017-Sep-15 18:00N 67°17' E 014°22'0 0.0
2017-Sep-15 17:30N 67°17' E 014°22'0 0.0
2017-Sep-15 17:00N 67°17' E 014°22'0 0.0
2017-Sep-15 16:30N 67°17' E 014°22'0 0.0
2017-Sep-15 16:00N 67°17' E 014°22'1123.0
2017-Sep-15 15:30N 67°18' E 013°54'712.8
2017-Sep-15 15:00N 67°24' E 013°54'613.1
2017-Sep-15 14:30N 67°24' E 014°10'917.3
2017-Sep-15 14:00N 67°17' E 014°22'1 1.4
2017-Sep-15 13:30N 67°17' E 014°24'1 1.4
2017-Sep-15 13:01N 67°17' E 014°22'1122.7
2017-Sep-15 12:31N 67°18' E 013°53'713.0
2017-Sep-15 12:00N 67°24' E 013°54'713.4
2017-Sep-15 11:31N 67°24' E 014°11'816.6
2017-Sep-15 11:01N 67°17' E 014°22'0 0.1
2017-Sep-15 10:31N 67°17' E 014°22'0 0.0
2017-Sep-15 10:00N 67°17' E 014°22'0 0.0
2017-Sep-15 09:30N 67°17' E 014°22'0 0.0
2017-Sep-15 09:00N 67°17' E 014°22'0 0.0
2017-Sep-15 08:30N 67°17' E 014°22'0 0.0
2017-Sep-15 08:00N 67°17' E 014°22'0 0.0
2017-Sep-15 07:30N 67°17' E 014°22'0 0.0
2017-Sep-15 07:00N 67°17' E 014°22'0 0.0
2017-Sep-15 06:30N 67°17' E 014°22'0 0.0
2017-Sep-15 06:00N 67°17' E 014°22'0 0.0
2017-Sep-15 05:30N 67°17' E 014°22'1 1.6
2017-Sep-15 05:01N 67°17' E 014°21'1223.2
2017-Sep-15 04:30N 67°07' E 014°03'4 7.3
2017-Sep-15 04:01N 67°11' E 014°05'917.9
2017-Sep-15 03:30N 67°17' E 014°22'0 0.0
2017-Sep-15 03:00N 67°17' E 014°22'0 0.0
2017-Sep-15 02:30N 67°17' E 014°22'0 0.0
2017-Sep-15 02:00N 67°17' E 014°22'0 0.0
2017-Sep-15 01:30N 67°17' E 014°22'0 0.0
2017-Sep-15 01:00N 67°17' E 014°22'0 0.0
2017-Sep-15 00:30N 67°17' E 014°22'0 0.0
2017-Sep-15 00:00N 67°17' E 014°22'0 0.0
2017-Sep-14 23:30N 67°17' E 014°22'0 0.0
2017-Sep-14 23:00N 67°17' E 014°22'0 0.0
2017-Sep-14 22:30N 67°17' E 014°22'0 0.0
2017-Sep-14 22:00N 67°17' E 014°22'0 0.0
2017-Sep-14 21:30N 67°17' E 014°22'0 0.0
2017-Sep-14 21:00N 67°17' E 014°22'0 0.0
2017-Sep-14 20:30N 67°17' E 014°22'2 3.3
2017-Sep-14 20:01N 67°17' E 014°18'1121.8
2017-Sep-14 19:30N 67°13' E 013°51'4 7.4
2017-Sep-14 19:00N 67°09' E 013°51'3 7.0
2017-Sep-14 18:30N 67°09' E 014°00'1224.1
2017-Sep-14 18:01N 67°17' E 014°22'0 0.1
2017-Sep-14 17:30N 67°17' E 014°22'0 0.0
2017-Sep-14 17:00N 67°17' E 014°22'0 0.0
2017-Sep-14 16:30N 67°17' E 014°22'0 0.1
2017-Sep-14 16:00N 67°17' E 014°22'2 4.0
2017-Sep-14 15:31N 67°19' E 014°21'1223.1
2017-Sep-14 15:01N 67°24' E 013°54'611.0
2017-Sep-14 14:30N 67°24' E 014°09'918.3
2017-Sep-14 14:00N 67°17' E 014°22'  
Track history (hours):
 
Tides and Currents Weather Stations Pressure Air Temp Water Temp Dewpoint Dewpoint Depression Visibility Wind Speed Wind Dir Waves Ship Positions

Fjordprinsessen

Last reported at 2017-Sep-24 14:00 UTC. Time now 2017-Sep-24 14:12 UTC.
Position N 67°17' E 014°22'.

Length 30 m.

Type: High speed craft. MMSI: 259604000.

Date/timePositionNaut miles runAvg speedWind from/ knotsBaromVisibWave heightAir tempDewpointWater temp
2017-Sep-24 14:00N 67°17' E 014°22'2 4.0
2017-Sep-24 13:30N 67°19' E 014°21'2 3.6
2017-Sep-24 12:58N 67°17' E 014°22'0 0.0
2017-Sep-24 12:28N 67°17' E 014°22'0 0.0
2017-Sep-24 11:58N 67°17' E 014°22'0 0.0
2017-Sep-24 11:28N 67°17' E 014°22'0 0.0
2017-Sep-24 10:58N 67°17' E 014°22'0 0.0
2017-Sep-24 10:28N 67°17' E 014°22'0 0.0
2017-Sep-24 09:58N 67°17' E 014°22'0 0.0
2017-Sep-24 09:28N 67°17' E 014°22'0 0.0
2017-Sep-24 08:58N 67°17' E 014°22'0 0.0
2017-Sep-24 08:28N 67°17' E 014°22'0 0.0
2017-Sep-24 07:58N 67°17' E 014°22'0 0.0
2017-Sep-24 07:28N 67°17' E 014°22'0 0.0
2017-Sep-24 06:58N 67°17' E 014°22'0 0.0
2017-Sep-24 06:28N 67°17' E 014°22'0 0.0
2017-Sep-24 05:58N 67°17' E 014°22'0 0.0
2017-Sep-24 05:28N 67°17' E 014°22'0 0.0
2017-Sep-24 04:58N 67°17' E 014°22'0 0.0
2017-Sep-24 04:28N 67°17' E 014°22'0 0.0
2017-Sep-24 03:58N 67°17' E 014°22'0 0.0
2017-Sep-24 03:28N 67°17' E 014°22'0 0.0
2017-Sep-24 02:58N 67°17' E 014°22'0 0.0
2017-Sep-24 02:28N 67°17' E 014°22'0 0.0
2017-Sep-24 01:58N 67°17' E 014°22'0 0.0
2017-Sep-24 01:28N 67°17' E 014°22'0 0.0
2017-Sep-24 00:58N 67°17' E 014°22'0 0.0
2017-Sep-24 00:28N 67°17' E 014°22'0 0.0
2017-Sep-23 23:58N 67°17' E 014°22'0 0.0
2017-Sep-23 23:28N 67°17' E 014°22'0 0.0
2017-Sep-23 22:58N 67°17' E 014°22'0 0.0
2017-Sep-23 22:28N 67°17' E 014°22'0 0.0
2017-Sep-23 21:58N 67°17' E 014°22'0 0.0
2017-Sep-23 21:28N 67°17' E 014°22'0 0.0
2017-Sep-23 20:58N 67°17' E 014°22'0 0.0
2017-Sep-23 20:28N 67°17' E 014°22'0 0.0
2017-Sep-23 19:58N 67°17' E 014°22'0 0.0
2017-Sep-22 02:00N 67°17' E 014°22'0 0.0
2017-Sep-22 01:30N 67°17' E 014°22'0 0.0
2017-Sep-22 01:00N 67°17' E 014°22'0 0.0
2017-Sep-22 00:30N 67°17' E 014°22'0 0.0
2017-Sep-22 00:00N 67°17' E 014°22'0 0.0
2017-Sep-21 23:30N 67°17' E 014°22'0 0.0
2017-Sep-21 23:00N 67°17' E 014°22'0 0.0
2017-Sep-21 22:30N 67°17' E 014°22'0 0.0
2017-Sep-21 22:00N 67°17' E 014°22'0 0.0
2017-Sep-21 21:30N 67°17' E 014°22'0 0.0
2017-Sep-21 21:00N 67°17' E 014°22'0 0.0
2017-Sep-21 20:30N 67°17' E 014°22'0 0.0
2017-Sep-21 20:00N 67°17' E 014°22'0 0.0
2017-Sep-21 19:30N 67°17' E 014°22'0 0.0
2017-Sep-21 19:00N 67°17' E 014°22'0 0.0
2017-Sep-21 18:30N 67°17' E 014°22'0 0.0
2017-Sep-21 18:00N 67°17' E 014°22'0 0.0
2017-Sep-21 17:30N 67°17' E 014°22'0 0.0
2017-Sep-21 17:00N 67°17' E 014°22'0 0.0
2017-Sep-21 16:30N 67°17' E 014°22'0 0.0
2017-Sep-21 16:00N 67°17' E 014°22'2 5.1
2017-Sep-21 15:30N 67°17' E 014°16'918.3
2017-Sep-21 15:00N 67°22' E 013°56'3 5.0
2017-Sep-21 14:30N 67°24' E 013°54'0 0.0
2017-Sep-21 14:00N 67°24' E 013°54'0 0.0
2017-Sep-21 13:30N 67°24' E 013°54'0 0.0
2017-Sep-21 13:00N 67°24' E 013°54'0 0.0
2017-Sep-21 12:30N 67°24' E 013°54'0 0.1
2017-Sep-21 12:00N 67°24' E 013°54'815.6
2017-Sep-21 11:30N 67°23' E 014°15'714.3
2017-Sep-21 11:00N 67°17' E 014°22'1 1.2
2017-Sep-21 10:30N 67°17' E 014°23'3 6.3
2017-Sep-21 10:01N 67°17' E 014°16'1020.6
2017-Sep-21 09:30N 67°13' E 013°51'5 9.7
2017-Sep-21 09:01N 67°08' E 013°53'510.0
2017-Sep-21 08:31N 67°10' E 014°04'1019.4
2017-Sep-21 08:00N 67°17' E 014°22'0 0.0
2017-Sep-21 07:29N 67°17' E 014°22'0 0.0
2017-Sep-21 06:59N 67°17' E 014°22'0 0.0
2017-Sep-21 06:29N 67°17' E 014°22'0 0.0
2017-Sep-21 05:59N 67°17' E 014°22'0 0.0
2017-Sep-21 05:29N 67°17' E 014°22'0 0.3
2017-Sep-21 05:01N 67°17' E 014°22'1224.6
2017-Sep-21 04:30N 67°07' E 014°03'4 8.8
2017-Sep-21 04:01N 67°11' E 014°07'815.2
2017-Sep-21 03:28N 67°17' E 014°22'0 0.0
2017-Sep-21 02:58N 67°17' E 014°22'0 0.0
2017-Sep-21 02:28N 67°17' E 014°22'0 0.0
2017-Sep-21 01:58N 67°17' E 014°22'0 0.0
2017-Sep-21 01:28N 67°17' E 014°22'0 0.0
2017-Sep-21 00:58N 67°17' E 014°22'0 0.0
2017-Sep-21 00:28N 67°17' E 014°22'0 0.0
2017-Sep-20 23:58N 67°17' E 014°22'0 0.0
2017-Sep-20 23:28N 67°17' E 014°22'0 0.0
2017-Sep-20 22:58N 67°17' E 014°22'0 0.0
2017-Sep-20 22:28N 67°17' E 014°22'0 0.0
2017-Sep-20 21:58N 67°17' E 014°22'0 0.0
2017-Sep-20 21:28N 67°17' E 014°22'0 0.0
2017-Sep-20 20:58N 67°17' E 014°22'0 0.0
2017-Sep-20 20:28N 67°17' E 014°22'0 0.0
2017-Sep-20 19:58N 67°17' E 014°22'1021.8
2017-Sep-20 19:31N 67°13' E 013°59'4 9.0
2017-Sep-20 19:00N 67°10' E 013°51'510.4
2017-Sep-20 18:31N 67°07' E 014°02'1224.6
2017-Sep-20 18:01N 67°17' E 014°22'0 0.1
2017-Sep-20 17:30N 67°17' E 014°22'0 0.0
2017-Sep-20 17:00N 67°17' E 014°22'0 0.1
2017-Sep-20 16:31N 67°17' E 014°22'4 7.9
2017-Sep-20 16:01N 67°17' E 014°12'1122.0
2017-Sep-20 15:30N 67°11' E 013°48'2 4.8
2017-Sep-20 15:00N 67°09' E 013°52'1414.4
2017-Sep-20 14:00N 67°17' E 014°22'0 0.0
2017-Sep-20 13:30N 67°17' E 014°22'1 1.4
2017-Sep-20 13:00N 67°17' E 014°24'1 1.4
2017-Sep-20 12:30N 67°17' E 014°22'0 0.0
2017-Sep-20 12:00N 67°17' E 014°22'0 0.0
2017-Sep-20 11:30N 67°17' E 014°22'0 0.0
2017-Sep-20 11:00N 67°17' E 014°22'0 0.0
2017-Sep-20 10:30N 67°17' E 014°22'0 0.0
2017-Sep-20 10:00N 67°17' E 014°22'0 0.0
2017-Sep-20 09:30N 67°17' E 014°22'0 0.0
2017-Sep-20 09:00N 67°17' E 014°22'0 0.0
2017-Sep-20 08:30N 67°17' E 014°22'0 0.0
2017-Sep-20 08:00N 67°17' E 014°22'2 3.1
2017-Sep-20 07:30N 67°19' E 014°22'1019.7
2017-Sep-20 07:00N 67°25' E 014°02'816.2
2017-Sep-20 06:30N 67°20' E 013°46'611.3
2017-Sep-20 06:00N 67°24' E 013°54'714.4
2017-Sep-20 05:29N 67°23' E 014°13'714.0
2017-Sep-20 05:01N 67°17' E 014°21'1223.3
2017-Sep-20 04:30N 67°07' E 014°03'4 8.0
2017-Sep-20 04:01N 67°11' E 014°06'917.3
2017-Sep-20 03:30N 67°17' E 014°22'0 0.0
2017-Sep-20 03:00N 67°17' E 014°22'0 0.0
2017-Sep-20 02:30N 67°17' E 014°22'0 0.0
2017-Sep-20 02:00N 67°17' E 014°22'0 0.0
2017-Sep-20 01:30N 67°17' E 014°22'0 0.0
2017-Sep-20 01:00N 67°17' E 014°22'0 0.0
2017-Sep-20 00:30N 67°17' E 014°22'0 0.0
2017-Sep-20 00:00N 67°17' E 014°22'0 0.0
2017-Sep-19 23:30N 67°17' E 014°22'0 0.0
2017-Sep-19 23:00N 67°17' E 014°22'0 0.0
2017-Sep-19 22:30N 67°17' E 014°22'0 0.0
2017-Sep-19 22:00N 67°17' E 014°22'0 0.0
2017-Sep-19 21:30N 67°17' E 014°22'0 0.0
2017-Sep-19 21:00N 67°17' E 014°22'0 0.0
2017-Sep-19 20:30N 67°17' E 014°22'0 0.0
2017-Sep-19 19:59N 67°17' E 014°22'0 0.0
2017-Sep-19 19:29N 67°17' E 014°22'0 0.0
2017-Sep-19 18:59N 67°17' E 014°22'0 0.0
2017-Sep-19 18:29N 67°17' E 014°22'0 0.0
2017-Sep-19 17:59N 67°17' E 014°22'0 0.0
2017-Sep-19 17:29N 67°17' E 014°22'0 0.0
2017-Sep-19 16:59N 67°17' E 014°22'0 0.1
2017-Sep-19 16:30N 67°17' E 014°22'613.0
2017-Sep-19 16:01N 67°22' E 014°12'1223.6
2017-Sep-19 15:30N 67°18' E 013°43'714.3
2017-Sep-19 15:00N 67°24' E 013°54'714.2
2017-Sep-19 14:31N 67°24' E 014°12'816.0
2017-Sep-19 14:00N 67°17' E 014°22'0 0.9
2017-Sep-19 13:30N 67°17' E 014°23'0 0.3
2017-Sep-19 13:00N 67°17' E 014°23'0 0.8
2017-Sep-19 12:30N 67°17' E 014°22'0 0.0
2017-Sep-19 11:58N 67°17' E 014°22'0 0.0
2017-Sep-19 11:28N 67°17' E 014°22'0 0.0
2017-Sep-19 10:58N 67°17' E 014°22'0 0.0
2017-Sep-19 10:28N 67°17' E 014°22'0 0.0
2017-Sep-19 09:58N 67°17' E 014°22'0 0.0
2017-Sep-19 09:28N 67°17' E 014°22'0 0.0
2017-Sep-19 08:58N 67°17' E 014°22'0 0.0
2017-Sep-19 08:28N 67°17' E 014°22'0 0.0
2017-Sep-19 07:58N 67°17' E 014°22'3 7.6
2017-Sep-19 07:31N 67°20' E 014°18'918.1
2017-Sep-19 07:00N 67°26' E 013°59'1019.1
2017-Sep-19 06:30N 67°18' E 013°43'815.1
2017-Sep-19 06:00N 67°25' E 013°54'715.0
2017-Sep-19 05:31N 67°23' E 014°13'713.0
2017-Sep-19 05:01N 67°17' E 014°21'1224.0
2017-Sep-19 04:30N 67°07' E 014°03'510.5
2017-Sep-19 04:01N 67°12' E 014°08'714.6
2017-Sep-19 03:30N 67°17' E 014°22'0 0.0
2017-Sep-19 03:00N 67°17' E 014°22'0 0.0
2017-Sep-19 02:30N 67°17' E 014°22'0 0.0
2017-Sep-19 02:00N 67°17' E 014°22'0 0.0
2017-Sep-19 01:30N 67°17' E 014°22'0 0.0
2017-Sep-19 01:00N 67°17' E 014°22'0 0.0
2017-Sep-19 00:30N 67°17' E 014°22'0 0.0
2017-Sep-19 00:00N 67°17' E 014°22'0 0.0
2017-Sep-18 23:30N 67°17' E 014°22'0 0.0
2017-Sep-18 23:00N 67°17' E 014°22'0 0.0
2017-Sep-18 22:30N 67°17' E 014°22'0 0.0
2017-Sep-18 22:00N 67°17' E 014°22'0 0.0
2017-Sep-18 21:30N 67°17' E 014°22'0 0.0
2017-Sep-18 21:00N 67°17' E 014°22'0 0.0
2017-Sep-18 20:30N 67°17' E 014°22'0 0.0
2017-Sep-18 20:00N 67°17' E 014°22'0 0.0
2017-Sep-18 19:30N 67°17' E 014°22'0 0.0
2017-Sep-18 19:00N 67°17' E 014°22'0 0.0
2017-Sep-18 18:30N 67°17' E 014°22'0 0.0
2017-Sep-18 18:00N 67°17' E 014°22'0 0.0
2017-Sep-18 17:30N 67°17' E 014°22'0 0.0
2017-Sep-18 17:00N 67°17' E 014°22'0 0.0
2017-Sep-18 16:30N 67°17' E 014°22'3 6.6
2017-Sep-18 16:01N 67°17' E 014°14'1020.9
2017-Sep-18 15:30N 67°12' E 013°50'4 7.3
2017-Sep-18 15:00N 67°08' E 013°52'4 8.3
2017-Sep-18 14:30N 67°09' E 014°02'1223.2
2017-Sep-18 14:01N 67°17' E 014°22'0 0.1
2017-Sep-18 13:30N 67°17' E 014°22'1 1.2
2017-Sep-18 13:00N 67°17' E 014°23'1 1.2
2017-Sep-18 12:30N 67°17' E 014°22'0 0.0
2017-Sep-18 12:00N 67°17' E 014°22'0 0.0
2017-Sep-18 11:30N 67°17' E 014°22'0 0.0
2017-Sep-18 11:00N 67°17' E 014°22'0 0.0
2017-Sep-18 10:30N 67°17' E 014°22'0 0.0
2017-Sep-18 10:00N 67°17' E 014°22'0 0.0
2017-Sep-18 09:30N 67°17' E 014°22'0 0.0
2017-Sep-18 09:00N 67°17' E 014°22'0 0.0
2017-Sep-18 08:30N 67°17' E 014°22'0 0.0
2017-Sep-18 08:01N 67°17' E 014°22'1 1.0
2017-Sep-18 07:31N 67°18' E 014°22'917.3
2017-Sep-18 07:00N 67°24' E 014°09'816.7
2017-Sep-18 06:31N 67°21' E 013°49'4 7.2
2017-Sep-18 06:01N 67°24' E 013°54'816.3
2017-Sep-18 05:31N 67°23' E 014°15'713.7
2017-Sep-18 05:01N 67°17' E 014°22'1019.6
2017-Sep-18 04:30N 67°25' E 014°06'5 8.2
2017-Sep-18 03:57N 67°24' E 013°54'0 0.0
2017-Sep-18 03:30N 67°24' E 013°54'0 0.0
2017-Sep-18 03:00N 67°24' E 013°54'0 0.0
2017-Sep-18 02:30N 67°24' E 013°54'0 0.0
2017-Sep-18 02:00N 67°24' E 013°54'0 0.0
2017-Sep-18 01:30N 67°24' E 013°54'0 0.0
2017-Sep-18 01:00N 67°24' E 013°54'0 0.0
2017-Sep-18 00:30N 67°24' E 013°54'0 0.0
2017-Sep-18 00:00N 67°24' E 013°54'0 0.0
2017-Sep-17 23:30N 67°24' E 013°54'0 0.0
2017-Sep-17 23:00N 67°24' E 013°54'0 0.0
2017-Sep-17 22:30N 67°24' E 013°54'0 0.0
2017-Sep-17 22:00N 67°24' E 013°54'0 0.0
2017-Sep-17 21:30N 67°24' E 013°54'0 0.0
2017-Sep-17 21:00N 67°24' E 013°54'0 0.0
2017-Sep-17 20:30N 67°24' E 013°54'0 0.0
2017-Sep-17 20:00N 67°24' E 013°54'510.5
2017-Sep-17 19:31N 67°25' E 014°08'919.0
2017-Sep-17 19:00N 67°17' E 014°22'0 0.5
2017-Sep-17 18:30N 67°17' E 014°22'1325.7
2017-Sep-17 18:01N 67°08' E 013°58'1121.5
2017-Sep-17 17:30N 67°00' E 013°40'612.8
2017-Sep-17 17:00N 66°55' E 013°30'612.1
2017-Sep-17 16:30N 66°49' E 013°31'816.3
2017-Sep-17 16:00N 66°45' E 013°13'611.4
2017-Sep-17 15:30N 66°39' E 013°07'612.6
2017-Sep-17 15:00N 66°34' E 012°58'918.9
2017-Sep-17 14:30N 66°25' E 012°50'612.8
2017-Sep-17 14:00N 66°19' E 012°54'816.9
2017-Sep-17 13:30N 66°11' E 012°59'1222.5
2017-Sep-17 13:00N 66°05' E 012°35'4 7.6
2017-Sep-17 12:30N 66°01' E 012°38'0 0.0
2017-Sep-17 12:00N 66°01' E 012°38'0 0.0
2017-Sep-17 11:30N 66°01' E 012°38'0 0.0
2017-Sep-17 10:57N 66°01' E 012°38'0 0.0
2017-Sep-17 10:30N 66°01' E 012°38'0 0.0
2017-Sep-17 10:00N 66°01' E 012°38'0 0.0
2017-Sep-17 09:30N 66°01' E 012°38'0 0.0
2017-Sep-17 09:00N 66°01' E 012°38'0 0.0
2017-Sep-17 08:30N 66°01' E 012°38'0 0.0
2017-Sep-17 08:00N 66°01' E 012°38'0 0.0
2017-Sep-17 07:30N 66°01' E 012°38'0 0.0
2017-Sep-17 07:00N 66°01' E 012°38'0 0.0
2017-Sep-17 06:30N 66°01' E 012°38'0 0.0
2017-Sep-17 06:00N 66°01' E 012°38'0 0.0
2017-Sep-17 05:27N 66°01' E 012°38'0 0.0
2017-Sep-17 05:00N 66°01' E 012°38'0 0.0
2017-Sep-17 04:30N 66°01' E 012°38'0 0.0
2017-Sep-17 03:57N 66°01' E 012°38'0 0.0
2017-Sep-17 03:30N 66°01' E 012°38'0 0.0
2017-Sep-17 03:00N 66°01' E 012°38'0 0.0
2017-Sep-17 02:30N 66°01' E 012°38'0 0.0
2017-Sep-17 01:57N 66°01' E 012°38'0 0.0
2017-Sep-17 01:24N 66°01' E 012°38'0 0.0
2017-Sep-17 01:00N 66°01' E 012°38'0 0.0
2017-Sep-17 00:30N 66°01' E 012°38'0 0.0
2017-Sep-17 00:00N 66°01' E 012°38'0 0.0
2017-Sep-16 23:30N 66°01' E 012°38'0 0.0
2017-Sep-16 23:00N 66°01' E 012°38'0 0.0
2017-Sep-16 22:30N 66°01' E 012°38'0 0.0
2017-Sep-16 22:00N 66°01' E 012°38'0 0.0
2017-Sep-16 21:30N 66°01' E 012°38'0 0.0
2017-Sep-16 21:00N 66°01' E 012°38'0 0.0
2017-Sep-16 20:30N 66°01' E 012°38'0 0.0
2017-Sep-16 19:59N 66°01' E 012°38'4 7.7
2017-Sep-16 19:30N 66°05' E 012°36'1122.8
2017-Sep-16 19:00N 66°11' E 012°60'918.3
2017-Sep-16 18:30N 66°20' E 013°00'714.0
2017-Sep-16 18:01N 66°24' E 012°46'917.2
2017-Sep-16 17:30N 66°31' E 012°60'917.0
2017-Sep-16 17:00N 66°39' E 013°04'611.9
2017-Sep-16 16:30N 66°43' E 013°17'612.2
2017-Sep-16 16:00N 66°48' E 013°23'816.4
2017-Sep-16 15:30N 66°53' E 013°40'918.3
2017-Sep-16 15:00N 67°02' E 013°45'918.2
2017-Sep-16 14:31N 67°07' E 014°03'1222.5
2017-Sep-16 13:58N 67°17' E 014°22'0 0.0
2017-Sep-16 13:28N 67°17' E 014°22'0 0.0
2017-Sep-16 12:58N 67°17' E 014°22'0 0.0
2017-Sep-16 12:28N 67°17' E 014°22'0 0.0
2017-Sep-16 11:58N 67°17' E 014°22'0 0.0
2017-Sep-16 11:28N 67°17' E 014°22'0 0.0
2017-Sep-16 10:58N 67°17' E 014°22'0 0.0
2017-Sep-16 10:28N 67°17' E 014°22'0 0.0
2017-Sep-16 09:58N 67°17' E 014°22'0 0.0
2017-Sep-16 09:28N 67°17' E 014°22'0 0.0
2017-Sep-16 08:58N 67°17' E 014°22'0 0.0
2017-Sep-16 08:28N 67°17' E 014°22'0 0.0
2017-Sep-16 08:01N 67°17' E 014°22'0 0.0
2017-Sep-16 07:31N 67°17' E 014°22'2 4.4
2017-Sep-16 07:01N 67°16' E 014°18'1121.9
2017-Sep-16 06:31N 67°07' E 014°00'611.2
2017-Sep-16 06:01N 67°11' E 013°49'1427.4
2017-Sep-16 05:30N 67°17' E 014°21'1 1.2
2017-Sep-16 05:00N 67°17' E 014°22'0 0.0
2017-Sep-16 04:30N 67°17' E 014°22'0 0.0
2017-Sep-16 04:00N 67°17' E 014°22'0 0.0
2017-Sep-16 03:30N 67°17' E 014°22'0 0.0
2017-Sep-16 03:00N 67°17' E 014°22'0 0.0
2017-Sep-16 02:30N 67°17' E 014°22'0 0.0
2017-Sep-16 02:00N 67°17' E 014°22'0 0.0
2017-Sep-16 01:30N 67°17' E 014°22'0 0.0
2017-Sep-16 01:00N 67°17' E 014°22'0 0.0
2017-Sep-16 00:30N 67°17' E 014°22'0 0.0
2017-Sep-16 00:00N 67°17' E 014°22'0 0.0
2017-Sep-15 23:30N 67°17' E 014°22'0 0.0
2017-Sep-15 23:00N 67°17' E 014°22'0 0.0
2017-Sep-15 22:30N 67°17' E 014°22'0 0.0
2017-Sep-15 22:00N 67°17' E 014°22'0 0.0
2017-Sep-15 21:30N 67°17' E 014°22'0 0.0
2017-Sep-15 21:00N 67°17' E 014°22'0 0.0
2017-Sep-15 20:30N 67°17' E 014°22'0 0.0
2017-Sep-15 20:00N 67°17' E 014°22'0 0.0
2017-Sep-15 19:30N 67°17' E 014°22'0 0.0
2017-Sep-15 19:00N 67°17' E 014°22'0 0.0
2017-Sep-15 18:30N 67°17' E 014°22'0 0.0
2017-Sep-15 18:00N 67°17' E 014°22'0 0.0
2017-Sep-15 17:30N 67°17' E 014°22'0 0.0
2017-Sep-15 17:00N 67°17' E 014°22'0 0.0
2017-Sep-15 16:30N 67°17' E 014°22'0 0.0
2017-Sep-15 16:00N 67°17' E 014°22'1123.0
2017-Sep-15 15:30N 67°18' E 013°54'712.8
2017-Sep-15 15:00N 67°24' E 013°54'613.1
2017-Sep-15 14:30N 67°24' E 014°10'917.3
2017-Sep-15 14:00N 67°17' E 014°22'1 1.4
2017-Sep-15 13:30N 67°17' E 014°24'1 1.4
2017-Sep-15 13:01N 67°17' E 014°22'1122.7
2017-Sep-15 12:31N 67°18' E 013°53'713.0
2017-Sep-15 12:00N 67°24' E 013°54'713.4
2017-Sep-15 11:31N 67°24' E 014°11'816.6
2017-Sep-15 11:01N 67°17' E 014°22'0 0.1
2017-Sep-15 10:31N 67°17' E 014°22'0 0.0
2017-Sep-15 10:00N 67°17' E 014°22'0 0.0
2017-Sep-15 09:30N 67°17' E 014°22'0 0.0
2017-Sep-15 09:00N 67°17' E 014°22'0 0.0
2017-Sep-15 08:30N 67°17' E 014°22'0 0.0
2017-Sep-15 08:00N 67°17' E 014°22'0 0.0
2017-Sep-15 07:30N 67°17' E 014°22'0 0.0
2017-Sep-15 07:00N 67°17' E 014°22'0 0.0
2017-Sep-15 06:30N 67°17' E 014°22'0 0.0
2017-Sep-15 06:00N 67°17' E 014°22'0 0.0
2017-Sep-15 05:30N 67°17' E 014°22'1 1.6
2017-Sep-15 05:01N 67°17' E 014°21'1223.2
2017-Sep-15 04:30N 67°07' E 014°03'4 7.3
2017-Sep-15 04:01N 67°11' E 014°05'917.9
2017-Sep-15 03:30N 67°17' E 014°22'0 0.0
2017-Sep-15 03:00N 67°17' E 014°22'0 0.0
2017-Sep-15 02:30N 67°17' E 014°22'0 0.0
2017-Sep-15 02:00N 67°17' E 014°22'0 0.0
2017-Sep-15 01:30N 67°17' E 014°22'0 0.0
2017-Sep-15 01:00N 67°17' E 014°22'0 0.0
2017-Sep-15 00:30N 67°17' E 014°22'0 0.0
2017-Sep-15 00:00N 67°17' E 014°22'0 0.0
2017-Sep-14 23:30N 67°17' E 014°22'0 0.0
2017-Sep-14 23:00N 67°17' E 014°22'0 0.0
2017-Sep-14 22:30N 67°17' E 014°22'0 0.0
2017-Sep-14 22:00N 67°17' E 014°22'0 0.0
2017-Sep-14 21:30N 67°17' E 014°22'0 0.0
2017-Sep-14 21:00N 67°17' E 014°22'0 0.0
2017-Sep-14 20:30N 67°17' E 014°22'2 3.3
2017-Sep-14 20:01N 67°17' E 014°18'1121.8
2017-Sep-14 19:30N 67°13' E 013°51'4 7.4
2017-Sep-14 19:00N 67°09' E 013°51'3 7.0
2017-Sep-14 18:30N 67°09' E 014°00'1224.1
2017-Sep-14 18:01N 67°17' E 014°22'0 0.1
2017-Sep-14 17:30N 67°17' E 014°22'0 0.0
2017-Sep-14 17:00N 67°17' E 014°22'0 0.0
2017-Sep-14 16:30N 67°17' E 014°22'0 0.1
2017-Sep-14 16:00N 67°17' E 014°22'2 4.0
2017-Sep-14 15:31N 67°19' E 014°21'1223.1
2017-Sep-14 15:01N 67°24' E 013°54'611.0
2017-Sep-14 14:30N 67°24' E 014°09'918.3
2017-Sep-14 14:00N 67°17' E 014°22'  

Dump ship's entire track history